sensor_id;sensor_type;location;lat;lon;timestamp;P1;durP1;ratioP1;P2;durP2;ratioP2
53843;SDS011;39744;53.314;5.710;2023-02-13T00:02:15;25.45;;;13.93;;
53843;SDS011;39744;53.314;5.710;2023-02-13T00:04:41;22.85;;;12.98;;
53843;SDS011;39744;53.314;5.710;2023-02-13T00:07:07;25.70;;;13.57;;
53843;SDS011;39744;53.314;5.710;2023-02-13T00:09:35;26.27;;;14.93;;
53843;SDS011;39744;53.314;5.710;2023-02-13T00:12:01;22.08;;;12.93;;
53843;SDS011;39744;53.314;5.710;2023-02-13T00:14:28;21.95;;;13.20;;
53843;SDS011;39744;53.314;5.710;2023-02-13T00:16:53;23.85;;;13.73;;
53843;SDS011;39744;53.314;5.710;2023-02-13T00:19:19;23.20;;;12.80;;
53843;SDS011;39744;53.314;5.710;2023-02-13T00:21:45;23.80;;;13.18;;
53843;SDS011;39744;53.314;5.710;2023-02-13T00:24:10;27.08;;;13.50;;
53843;SDS011;39744;53.314;5.710;2023-02-13T00:26:36;23.80;;;13.27;;
53843;SDS011;39744;53.314;5.710;2023-02-13T00:29:03;23.42;;;12.85;;
53843;SDS011;39744;53.314;5.710;2023-02-13T00:31:29;26.27;;;13.73;;
53843;SDS011;39744;53.314;5.710;2023-02-13T00:33:55;25.25;;;13.52;;
53843;SDS011;39744;53.314;5.710;2023-02-13T00:36:21;27.33;;;14.63;;
53843;SDS011;39744;53.314;5.710;2023-02-13T00:38:47;24.27;;;13.38;;
53843;SDS011;39744;53.314;5.710;2023-02-13T00:41:13;26.88;;;13.93;;
53843;SDS011;39744;53.314;5.710;2023-02-13T00:43:41;26.05;;;13.98;;
53843;SDS011;39744;53.314;5.710;2023-02-13T00:46:07;25.42;;;14.07;;
53843;SDS011;39744;53.314;5.710;2023-02-13T00:48:33;26.50;;;14.05;;
53843;SDS011;39744;53.314;5.710;2023-02-13T00:50:59;24.38;;;13.70;;
53843;SDS011;39744;53.314;5.710;2023-02-13T00:53:26;25.77;;;13.45;;
53843;SDS011;39744;53.314;5.710;2023-02-13T00:55:52;25.65;;;13.93;;
53843;SDS011;39744;53.314;5.710;2023-02-13T00:58:18;29.30;;;16.25;;
53843;SDS011;39744;53.314;5.710;2023-02-13T01:00:44;28.30;;;14.77;;
53843;SDS011;39744;53.314;5.710;2023-02-13T01:03:11;26.17;;;15.15;;
53843;SDS011;39744;53.314;5.710;2023-02-13T01:05:38;28.35;;;14.68;;
53843;SDS011;39744;53.314;5.710;2023-02-13T01:08:04;26.60;;;14.25;;
53843;SDS011;39744;53.314;5.710;2023-02-13T01:10:30;30.02;;;15.52;;
53843;SDS011;39744;53.314;5.710;2023-02-13T01:12:56;29.80;;;14.70;;
53843;SDS011;39744;53.314;5.710;2023-02-13T01:15:21;28.67;;;15.05;;
53843;SDS011;39744;53.314;5.710;2023-02-13T01:17:47;29.33;;;15.63;;
53843;SDS011;39744;53.314;5.710;2023-02-13T01:20:13;29.33;;;15.00;;
53843;SDS011;39744;53.314;5.710;2023-02-13T01:22:39;28.13;;;14.10;;
53843;SDS011;39744;53.314;5.710;2023-02-13T01:25:05;30.17;;;15.18;;
53843;SDS011;39744;53.314;5.710;2023-02-13T01:27:31;28.83;;;14.98;;
53843;SDS011;39744;53.314;5.710;2023-02-13T01:29:57;28.08;;;14.55;;
53843;SDS011;39744;53.314;5.710;2023-02-13T01:32:23;26.50;;;15.05;;
53843;SDS011;39744;53.314;5.710;2023-02-13T01:34:49;27.30;;;14.35;;
53843;SDS011;39744;53.314;5.710;2023-02-13T01:37:15;24.35;;;13.25;;
53843;SDS011;39744;53.314;5.710;2023-02-13T01:39:40;28.05;;;13.23;;
53843;SDS011;39744;53.314;5.710;2023-02-13T01:42:20;26.35;;;14.02;;
53843;SDS011;39744;53.314;5.710;2023-02-13T01:47:26;25.98;;;14.40;;
53843;SDS011;39744;53.314;5.710;2023-02-13T01:52:50;30.23;;;15.98;;
53843;SDS011;39744;53.314;5.710;2023-02-13T01:55:23;31.40;;;17.00;;
53843;SDS011;39744;53.314;5.710;2023-02-13T01:57:52;29.90;;;16.00;;
53843;SDS011;39744;53.314;5.710;2023-02-13T02:00:22;28.42;;;15.75;;
53843;SDS011;39744;53.314;5.710;2023-02-13T02:02:56;28.75;;;15.38;;
53843;SDS011;39744;53.314;5.710;2023-02-13T02:05:25;30.63;;;15.23;;
53843;SDS011;39744;53.314;5.710;2023-02-13T02:07:53;28.17;;;15.80;;
53843;SDS011;39744;53.314;5.710;2023-02-13T02:10:21;31.60;;;16.15;;
53843;SDS011;39744;53.314;5.710;2023-02-13T02:15:29;33.53;;;16.38;;
53843;SDS011;39744;53.314;5.710;2023-02-13T02:17:54;32.60;;;15.80;;
53843;SDS011;39744;53.314;5.710;2023-02-13T02:34:49;31.13;;;14.68;;
53843;SDS011;39744;53.314;5.710;2023-02-13T02:37:35;29.02;;;14.75;;
53843;SDS011;39744;53.314;5.710;2023-02-13T02:40:15;32.00;;;16.85;;
53843;SDS011;39744;53.314;5.710;2023-02-13T02:51:55;27.23;;;14.02;;
53843;SDS011;39744;53.314;5.710;2023-02-13T02:55:00;25.55;;;14.65;;
53843;SDS011;39744;53.314;5.710;2023-02-13T02:57:49;27.60;;;14.75;;
53843;SDS011;39744;53.314;5.710;2023-02-13T03:00:41;26.70;;;14.45;;
53843;SDS011;39744;53.314;5.710;2023-02-13T03:03:30;28.02;;;13.85;;
53843;SDS011;39744;53.314;5.710;2023-02-13T03:06:22;28.50;;;14.77;;
53843;SDS011;39744;53.314;5.710;2023-02-13T03:09:02;27.75;;;14.18;;
53843;SDS011;39744;53.314;5.710;2023-02-13T03:11:52;25.00;;;13.68;;
53843;SDS011;39744;53.314;5.710;2023-02-13T03:14:37;28.88;;;14.80;;
53843;SDS011;39744;53.314;5.710;2023-02-13T03:17:03;26.60;;;13.85;;
53843;SDS011;39744;53.314;5.710;2023-02-13T03:19:54;31.17;;;15.02;;
53843;SDS011;39744;53.314;5.710;2023-02-13T03:22:48;26.75;;;14.32;;
53843;SDS011;39744;53.314;5.710;2023-02-13T03:25:39;31.08;;;14.60;;
53843;SDS011;39744;53.314;5.710;2023-02-13T03:31:26;27.83;;;14.68;;
53843;SDS011;39744;53.314;5.710;2023-02-13T03:34:06;25.70;;;14.07;;
53843;SDS011;39744;53.314;5.710;2023-02-13T03:39:22;28.88;;;14.82;;
53843;SDS011;39744;53.314;5.710;2023-02-13T03:45:01;27.17;;;15.07;;
53843;SDS011;39744;53.314;5.710;2023-02-13T03:47:54;30.05;;;15.68;;
53843;SDS011;39744;53.314;5.710;2023-02-13T03:50:22;29.10;;;15.18;;
53843;SDS011;39744;53.314;5.710;2023-02-13T03:55:29;28.67;;;15.60;;
53843;SDS011;39744;53.314;5.710;2023-02-13T03:58:21;29.35;;;15.27;;
53843;SDS011;39744;53.314;5.710;2023-02-13T04:01:08;29.55;;;14.45;;
53843;SDS011;39744;53.314;5.710;2023-02-13T04:06:32;32.85;;;15.48;;
53843;SDS011;39744;53.314;5.710;2023-02-13T04:09:02;24.85;;;14.32;;
53843;SDS011;39744;53.314;5.710;2023-02-13T04:14:10;25.73;;;13.88;;
53843;SDS011;39744;53.314;5.710;2023-02-13T04:16:42;28.67;;;14.38;;
53843;SDS011;39744;53.314;5.710;2023-02-13T04:19:13;26.38;;;14.18;;
53843;SDS011;39744;53.314;5.710;2023-02-13T04:21:39;27.02;;;14.48;;
53843;SDS011;39744;53.314;5.710;2023-02-13T04:24:05;29.67;;;15.38;;
53843;SDS011;39744;53.314;5.710;2023-02-13T04:26:36;31.52;;;15.52;;
53843;SDS011;39744;53.314;5.710;2023-02-13T04:29:03;27.20;;;14.98;;
53843;SDS011;39744;53.314;5.710;2023-02-13T04:31:29;28.60;;;16.38;;
53843;SDS011;39744;53.314;5.710;2023-02-13T04:33:55;29.55;;;15.80;;
53843;SDS011;39744;53.314;5.710;2023-02-13T04:36:21;32.05;;;16.77;;
53843;SDS011;39744;53.314;5.710;2023-02-13T04:38:46;30.63;;;16.23;;
53843;SDS011;39744;53.314;5.710;2023-02-13T04:41:12;29.73;;;15.80;;
53843;SDS011;39744;53.314;5.710;2023-02-13T04:43:38;30.08;;;15.75;;
53843;SDS011;39744;53.314;5.710;2023-02-13T04:46:03;30.33;;;16.33;;
53843;SDS011;39744;53.314;5.710;2023-02-13T04:48:29;29.52;;;15.68;;
53843;SDS011;39744;53.314;5.710;2023-02-13T04:50:55;30.00;;;15.93;;
53843;SDS011;39744;53.314;5.710;2023-02-13T04:53:21;33.08;;;17.10;;
53843;SDS011;39744;53.314;5.710;2023-02-13T04:55:46;33.90;;;16.45;;
53843;SDS011;39744;53.314;5.710;2023-02-13T04:58:12;33.60;;;16.23;;
53843;SDS011;39744;53.314;5.710;2023-02-13T05:00:37;30.52;;;15.15;;
53843;SDS011;39744;53.314;5.710;2023-02-13T05:03:08;31.60;;;16.23;;
53843;SDS011;39744;53.314;5.710;2023-02-13T05:05:35;30.35;;;15.80;;
53843;SDS011;39744;53.314;5.710;2023-02-13T05:08:01;32.30;;;16.17;;
53843;SDS011;39744;53.314;5.710;2023-02-13T05:10:27;30.65;;;16.67;;
53843;SDS011;39744;53.314;5.710;2023-02-13T05:12:53;33.40;;;16.48;;
53843;SDS011;39744;53.314;5.710;2023-02-13T05:15:19;31.13;;;15.05;;
53843;SDS011;39744;53.314;5.710;2023-02-13T05:17:45;31.40;;;16.08;;
53843;SDS011;39744;53.314;5.710;2023-02-13T05:20:11;27.73;;;14.65;;
53843;SDS011;39744;53.314;5.710;2023-02-13T05:22:42;31.15;;;15.90;;
53843;SDS011;39744;53.314;5.710;2023-02-13T05:25:31;30.23;;;15.15;;
53843;SDS011;39744;53.314;5.710;2023-02-13T05:27:58;30.63;;;15.88;;
53843;SDS011;39744;53.314;5.710;2023-02-13T05:30:23;29.83;;;15.63;;
53843;SDS011;39744;53.314;5.710;2023-02-13T05:32:49;30.20;;;15.57;;
53843;SDS011;39744;53.314;5.710;2023-02-13T05:35:16;32.10;;;16.35;;
53843;SDS011;39744;53.314;5.710;2023-02-13T05:37:42;33.10;;;16.85;;
53843;SDS011;39744;53.314;5.710;2023-02-13T05:40:08;33.38;;;15.93;;
53843;SDS011;39744;53.314;5.710;2023-02-13T05:42:35;30.42;;;15.68;;
53843;SDS011;39744;53.314;5.710;2023-02-13T05:45:00;29.88;;;17.08;;
53843;SDS011;39744;53.314;5.710;2023-02-13T05:47:26;34.72;;;17.90;;
53843;SDS011;39744;53.314;5.710;2023-02-13T05:49:52;31.63;;;17.50;;
53843;SDS011;39744;53.314;5.710;2023-02-13T05:52:17;33.33;;;16.95;;
53843;SDS011;39744;53.314;5.710;2023-02-13T05:54:43;34.58;;;17.55;;
53843;SDS011;39744;53.314;5.710;2023-02-13T05:57:08;32.45;;;16.15;;
53843;SDS011;39744;53.314;5.710;2023-02-13T05:59:34;32.95;;;16.17;;
53843;SDS011;39744;53.314;5.710;2023-02-13T06:02:00;34.60;;;18.02;;
53843;SDS011;39744;53.314;5.710;2023-02-13T06:04:25;35.65;;;17.00;;
53843;SDS011;39744;53.314;5.710;2023-02-13T06:06:51;31.20;;;16.17;;
53843;SDS011;39744;53.314;5.710;2023-02-13T06:09:16;32.42;;;15.93;;
53843;SDS011;39744;53.314;5.710;2023-02-13T06:11:42;31.05;;;16.05;;
53843;SDS011;39744;53.314;5.710;2023-02-13T06:14:08;32.47;;;16.90;;
53843;SDS011;39744;53.314;5.710;2023-02-13T06:16:34;33.67;;;17.17;;
53843;SDS011;39744;53.314;5.710;2023-02-13T06:19:00;36.35;;;17.33;;
53843;SDS011;39744;53.314;5.710;2023-02-13T06:21:26;34.10;;;16.10;;
53843;SDS011;39744;53.314;5.710;2023-02-13T06:23:52;31.63;;;16.05;;
53843;SDS011;39744;53.314;5.710;2023-02-13T06:26:18;33.08;;;16.10;;
53843;SDS011;39744;53.314;5.710;2023-02-13T06:28:43;32.63;;;17.20;;
53843;SDS011;39744;53.314;5.710;2023-02-13T06:31:09;33.25;;;17.17;;
53843;SDS011;39744;53.314;5.710;2023-02-13T06:33:34;32.63;;;15.95;;
53843;SDS011;39744;53.314;5.710;2023-02-13T06:36:00;33.05;;;16.15;;
53843;SDS011;39744;53.314;5.710;2023-02-13T06:38:26;31.50;;;16.58;;
53843;SDS011;39744;53.314;5.710;2023-02-13T06:40:51;32.47;;;16.08;;
53843;SDS011;39744;53.314;5.710;2023-02-13T06:43:17;35.47;;;17.58;;
53843;SDS011;39744;53.314;5.710;2023-02-13T06:45:43;34.63;;;17.00;;
53843;SDS011;39744;53.314;5.710;2023-02-13T06:48:11;32.72;;;17.13;;
53843;SDS011;39744;53.314;5.710;2023-02-13T06:50:36;37.10;;;16.38;;
53843;SDS011;39744;53.314;5.710;2023-02-13T06:53:02;33.28;;;17.15;;
53843;SDS011;39744;53.314;5.710;2023-02-13T06:55:28;34.25;;;16.70;;
53843;SDS011;39744;53.314;5.710;2023-02-13T06:57:53;33.38;;;16.00;;
53843;SDS011;39744;53.314;5.710;2023-02-13T07:00:19;34.15;;;16.50;;
53843;SDS011;39744;53.314;5.710;2023-02-13T07:02:45;36.13;;;16.70;;
53843;SDS011;39744;53.314;5.710;2023-02-13T07:05:11;37.03;;;17.67;;
53843;SDS011;39744;53.314;5.710;2023-02-13T07:07:38;35.47;;;17.05;;
53843;SDS011;39744;53.314;5.710;2023-02-13T07:10:06;35.03;;;16.02;;
53843;SDS011;39744;53.314;5.710;2023-02-13T07:12:33;33.85;;;15.52;;
53843;SDS011;39744;53.314;5.710;2023-02-13T07:15:00;31.63;;;16.42;;
53843;SDS011;39744;53.314;5.710;2023-02-13T07:17:27;33.38;;;16.85;;
53843;SDS011;39744;53.314;5.710;2023-02-13T07:19:53;35.63;;;16.40;;
53843;SDS011;39744;53.314;5.710;2023-02-13T07:22:18;34.47;;;17.17;;
53843;SDS011;39744;53.314;5.710;2023-02-13T07:24:44;33.63;;;17.02;;
53843;SDS011;39744;53.314;5.710;2023-02-13T07:27:10;34.55;;;16.67;;
53843;SDS011;39744;53.314;5.710;2023-02-13T07:29:35;36.70;;;17.83;;
53843;SDS011;39744;53.314;5.710;2023-02-13T07:32:01;34.08;;;16.92;;
53843;SDS011;39744;53.314;5.710;2023-02-13T07:34:26;36.53;;;17.58;;
53843;SDS011;39744;53.314;5.710;2023-02-13T07:36:52;37.92;;;17.73;;
53843;SDS011;39744;53.314;5.710;2023-02-13T07:39:18;34.47;;;17.17;;
53843;SDS011;39744;53.314;5.710;2023-02-13T07:41:43;37.72;;;17.50;;
53843;SDS011;39744;53.314;5.710;2023-02-13T07:44:09;38.25;;;17.38;;
53843;SDS011;39744;53.314;5.710;2023-02-13T07:46:35;33.75;;;17.33;;
53843;SDS011;39744;53.314;5.710;2023-02-13T07:49:01;33.92;;;17.65;;
53843;SDS011;39744;53.314;5.710;2023-02-13T07:51:27;36.10;;;17.60;;
53843;SDS011;39744;53.314;5.710;2023-02-13T07:53:53;35.30;;;17.00;;
53843;SDS011;39744;53.314;5.710;2023-02-13T07:56:19;34.38;;;18.48;;
53843;SDS011;39744;53.314;5.710;2023-02-13T07:58:45;34.80;;;17.52;;
53843;SDS011;39744;53.314;5.710;2023-02-13T08:01:12;37.42;;;18.50;;
53843;SDS011;39744;53.314;5.710;2023-02-13T08:03:39;37.97;;;18.45;;
53843;SDS011;39744;53.314;5.710;2023-02-13T08:06:05;35.13;;;17.88;;
53843;SDS011;39744;53.314;5.710;2023-02-13T08:08:31;33.83;;;17.13;;
53843;SDS011;39744;53.314;5.710;2023-02-13T08:11:01;35.80;;;18.73;;
53843;SDS011;39744;53.314;5.710;2023-02-13T08:13:47;35.92;;;17.75;;
53843;SDS011;39744;53.314;5.710;2023-02-13T08:16:13;38.03;;;18.15;;
53843;SDS011;39744;53.314;5.710;2023-02-13T08:18:39;35.28;;;17.77;;
53843;SDS011;39744;53.314;5.710;2023-02-13T08:21:04;38.42;;;19.48;;
53843;SDS011;39744;53.314;5.710;2023-02-13T08:23:30;36.50;;;18.17;;
53843;SDS011;39744;53.314;5.710;2023-02-13T08:25:58;37.70;;;18.45;;
53843;SDS011;39744;53.314;5.710;2023-02-13T08:28:29;36.05;;;18.75;;
53843;SDS011;39744;53.314;5.710;2023-02-13T08:30:55;41.20;;;19.40;;
53843;SDS011;39744;53.314;5.710;2023-02-13T08:33:20;38.05;;;18.65;;
53843;SDS011;39744;53.314;5.710;2023-02-13T08:35:46;41.35;;;19.70;;
53843;SDS011;39744;53.314;5.710;2023-02-13T08:38:12;35.58;;;18.13;;
53843;SDS011;39744;53.314;5.710;2023-02-13T08:40:38;37.53;;;18.55;;
53843;SDS011;39744;53.314;5.710;2023-02-13T08:43:04;36.92;;;18.33;;
53843;SDS011;39744;53.314;5.710;2023-02-13T08:45:31;38.60;;;19.27;;
53843;SDS011;39744;53.314;5.710;2023-02-13T08:47:58;33.78;;;17.52;;
53843;SDS011;39744;53.314;5.710;2023-02-13T08:50:24;36.00;;;17.77;;
53843;SDS011;39744;53.314;5.710;2023-02-13T08:52:51;33.63;;;18.08;;
53843;SDS011;39744;53.314;5.710;2023-02-13T08:55:17;36.17;;;18.00;;
53843;SDS011;39744;53.314;5.710;2023-02-13T08:57:43;37.08;;;19.10;;
53843;SDS011;39744;53.314;5.710;2023-02-13T09:00:08;35.55;;;17.77;;
53843;SDS011;39744;53.314;5.710;2023-02-13T09:02:34;37.28;;;18.60;;
53843;SDS011;39744;53.314;5.710;2023-02-13T09:05:00;34.40;;;17.85;;
53843;SDS011;39744;53.314;5.710;2023-02-13T09:07:26;33.92;;;17.67;;
53843;SDS011;39744;53.314;5.710;2023-02-13T09:09:51;32.72;;;17.70;;
53843;SDS011;39744;53.314;5.710;2023-02-13T09:12:17;33.80;;;18.63;;
53843;SDS011;39744;53.314;5.710;2023-02-13T09:14:43;36.25;;;18.00;;
53843;SDS011;39744;53.314;5.710;2023-02-13T09:17:08;32.42;;;17.42;;
53843;SDS011;39744;53.314;5.710;2023-02-13T09:19:34;34.78;;;17.80;;
53843;SDS011;39744;53.314;5.710;2023-02-13T09:21:59;36.00;;;17.45;;
53843;SDS011;39744;53.314;5.710;2023-02-13T09:24:25;35.10;;;18.65;;
53843;SDS011;39744;53.314;5.710;2023-02-13T09:26:51;34.35;;;17.90;;
53843;SDS011;39744;53.314;5.710;2023-02-13T09:29:16;36.97;;;18.38;;
53843;SDS011;39744;53.314;5.710;2023-02-13T09:31:42;35.63;;;17.98;;
53843;SDS011;39744;53.314;5.710;2023-02-13T09:34:08;32.63;;;18.63;;
53843;SDS011;39744;53.314;5.710;2023-02-13T09:36:33;35.95;;;18.63;;
53843;SDS011;39744;53.314;5.710;2023-02-13T09:39:00;37.58;;;19.05;;
53843;SDS011;39744;53.314;5.710;2023-02-13T09:41:30;36.28;;;17.80;;
53843;SDS011;39744;53.314;5.710;2023-02-13T09:44:00;37.03;;;19.25;;
53843;SDS011;39744;53.314;5.710;2023-02-13T09:47:47;32.15;;;17.25;;
53843;SDS011;39744;53.314;5.710;2023-02-13T09:50:21;38.42;;;18.73;;
53843;SDS011;39744;53.314;5.710;2023-02-13T09:52:50;37.15;;;16.88;;
53843;SDS011;39744;53.314;5.710;2023-02-13T10:00:15;34.97;;;18.73;;
53843;SDS011;39744;53.314;5.710;2023-02-13T10:08:33;35.25;;;18.27;;
53843;SDS011;39744;53.314;5.710;2023-02-13T10:13:49;37.53;;;17.95;;
53843;SDS011;39744;53.314;5.710;2023-02-13T10:16:39;33.20;;;17.33;;
53843;SDS011;39744;53.314;5.710;2023-02-13T10:22:39;34.72;;;17.70;;
53843;SDS011;39744;53.314;5.710;2023-02-13T10:25:09;36.00;;;17.95;;
53843;SDS011;39744;53.314;5.710;2023-02-13T10:27:44;35.97;;;17.23;;
53843;SDS011;39744;53.314;5.710;2023-02-13T10:32:46;38.90;;;17.52;;
53843;SDS011;39744;53.314;5.710;2023-02-13T10:35:43;30.42;;;16.70;;
53843;SDS011;39744;53.314;5.710;2023-02-13T10:38:16;34.78;;;17.90;;
53843;SDS011;39744;53.314;5.710;2023-02-13T10:44:01;32.58;;;15.63;;
53843;SDS011;39744;53.314;5.710;2023-02-13T10:46:42;34.00;;;16.80;;
53843;SDS011;39744;53.314;5.710;2023-02-13T10:54:51;33.65;;;17.05;;
53843;SDS011;39744;53.314;5.710;2023-02-13T10:58:04;35.28;;;18.05;;
53843;SDS011;39744;53.314;5.710;2023-02-13T11:00:37;33.78;;;16.75;;
53843;SDS011;39744;53.314;5.710;2023-02-13T11:03:23;34.70;;;17.77;;
53843;SDS011;39744;53.314;5.710;2023-02-13T11:05:51;35.25;;;17.20;;
53843;SDS011;39744;53.314;5.710;2023-02-13T11:10:46;34.08;;;16.85;;
53843;SDS011;39744;53.314;5.710;2023-02-13T11:13:19;34.97;;;18.17;;
53843;SDS011;39744;53.314;5.710;2023-02-13T11:16:00;31.60;;;16.42;;
53843;SDS011;39744;53.314;5.710;2023-02-13T11:18:29;33.10;;;16.67;;
53843;SDS011;39744;53.314;5.710;2023-02-13T11:21:08;30.25;;;16.65;;
53843;SDS011;39744;53.314;5.710;2023-02-13T11:23:39;32.10;;;16.77;;
53843;SDS011;39744;53.314;5.710;2023-02-13T11:28:49;35.50;;;16.92;;
53843;SDS011;39744;53.314;5.710;2023-02-13T11:33:51;31.35;;;16.88;;
53843;SDS011;39744;53.314;5.710;2023-02-13T11:36:30;33.92;;;17.20;;
53843;SDS011;39744;53.314;5.710;2023-02-13T11:38:58;38.25;;;18.00;;
53843;SDS011;39744;53.314;5.710;2023-02-13T11:41:25;34.53;;;16.83;;
53843;SDS011;39744;53.314;5.710;2023-02-13T11:43:52;31.83;;;17.15;;
53843;SDS011;39744;53.314;5.710;2023-02-13T11:49:00;32.75;;;16.17;;
53843;SDS011;39744;53.314;5.710;2023-02-13T11:51:49;36.33;;;17.98;;
53843;SDS011;39744;53.314;5.710;2023-02-13T11:57:16;34.53;;;17.08;;
53843;SDS011;39744;53.314;5.710;2023-02-13T11:59:58;31.30;;;16.40;;
53843;SDS011;39744;53.314;5.710;2023-02-13T12:02:42;34.35;;;16.05;;
53843;SDS011;39744;53.314;5.710;2023-02-13T12:05:21;32.70;;;16.05;;
53843;SDS011;39744;53.314;5.710;2023-02-13T12:07:48;33.03;;;16.60;;
53843;SDS011;39744;53.314;5.710;2023-02-13T12:10:25;34.00;;;16.83;;
53843;SDS011;39744;53.314;5.710;2023-02-13T12:12:53;29.45;;;15.38;;
53843;SDS011;39744;53.314;5.710;2023-02-13T12:15:35;33.10;;;16.08;;
53843;SDS011;39744;53.314;5.710;2023-02-13T12:23:32;33.45;;;17.52;;
53843;SDS011;39744;53.314;5.710;2023-02-13T12:31:59;33.63;;;16.85;;
53843;SDS011;39744;53.314;5.710;2023-02-13T12:42:54;37.08;;;17.77;;
53843;SDS011;39744;53.314;5.710;2023-02-13T12:46:05;31.23;;;17.10;;
53843;SDS011;39744;53.314;5.710;2023-02-13T12:49:00;33.50;;;16.92;;
53843;SDS011;39744;53.314;5.710;2023-02-13T12:51:50;30.23;;;15.88;;
53843;SDS011;39744;53.314;5.710;2023-02-13T12:56:58;31.30;;;15.85;;
53843;SDS011;39744;53.314;5.710;2023-02-13T13:08:41;33.65;;;17.50;;
53843;SDS011;39744;53.314;5.710;2023-02-13T13:11:38;31.65;;;16.80;;
53843;SDS011;39744;53.314;5.710;2023-02-13T13:14:43;34.92;;;18.35;;
53843;SDS011;39744;53.314;5.710;2023-02-13T13:17:17;32.90;;;16.50;;
53843;SDS011;39744;53.314;5.710;2023-02-13T13:20:21;33.13;;;17.08;;
53843;SDS011;39744;53.314;5.710;2023-02-13T13:22:56;35.15;;;17.45;;
53843;SDS011;39744;53.314;5.710;2023-02-13T13:25:48;39.88;;;17.85;;
53843;SDS011;39744;53.314;5.710;2023-02-13T13:28:28;36.10;;;17.90;;
53843;SDS011;39744;53.314;5.710;2023-02-13T13:31:02;32.10;;;17.67;;
53843;SDS011;39744;53.314;5.710;2023-02-13T13:33:28;35.13;;;17.88;;
53843;SDS011;39744;53.314;5.710;2023-02-13T13:46:49;36.03;;;17.90;;
53843;SDS011;39744;53.314;5.710;2023-02-13T13:52:27;36.15;;;17.83;;
53843;SDS011;39744;53.314;5.710;2023-02-13T13:54:58;38.80;;;18.65;;
53843;SDS011;39744;53.314;5.710;2023-02-13T13:59:59;34.47;;;17.63;;
53843;SDS011;39744;53.314;5.710;2023-02-13T14:02:39;37.63;;;17.73;;
53843;SDS011;39744;53.314;5.710;2023-02-13T14:05:24;31.92;;;17.20;;
53843;SDS011;39744;53.314;5.710;2023-02-13T14:08:01;35.30;;;17.13;;
53843;SDS011;39744;53.314;5.710;2023-02-13T14:13:27;35.10;;;18.08;;
53843;SDS011;39744;53.314;5.710;2023-02-13T14:15:58;34.60;;;17.80;;
53843;SDS011;39744;53.314;5.710;2023-02-13T14:18:24;35.95;;;18.58;;
53843;SDS011;39744;53.314;5.710;2023-02-13T14:20:58;32.15;;;16.95;;
53843;SDS011;39744;53.314;5.710;2023-02-13T14:26:10;34.03;;;18.05;;
53843;SDS011;39744;53.314;5.710;2023-02-13T14:31:35;33.03;;;17.15;;
53843;SDS011;39744;53.314;5.710;2023-02-13T14:34:15;33.63;;;17.90;;
53843;SDS011;39744;53.314;5.710;2023-02-13T14:36:46;37.95;;;18.10;;
53843;SDS011;39744;53.314;5.710;2023-02-13T14:39:29;35.65;;;16.70;;
53843;SDS011;39744;53.314;5.710;2023-02-13T14:42:00;34.53;;;18.10;;
53843;SDS011;39744;53.314;5.710;2023-02-13T14:46:59;37.60;;;18.98;;
53843;SDS011;39744;53.314;5.710;2023-02-13T14:49:28;36.90;;;18.58;;
53843;SDS011;39744;53.314;5.710;2023-02-13T14:52:02;37.83;;;18.67;;
53843;SDS011;39744;53.314;5.710;2023-02-13T14:54:35;36.65;;;19.60;;
53843;SDS011;39744;53.314;5.710;2023-02-13T14:57:16;35.63;;;18.67;;
53843;SDS011;39744;53.314;5.710;2023-02-13T14:59:48;34.90;;;18.55;;
53843;SDS011;39744;53.314;5.710;2023-02-13T15:02:24;39.45;;;19.35;;
53843;SDS011;39744;53.314;5.710;2023-02-13T15:07:30;36.60;;;18.63;;
53843;SDS011;39744;53.314;5.710;2023-02-13T15:10:06;34.08;;;18.55;;
53843;SDS011;39744;53.314;5.710;2023-02-13T15:12:59;37.83;;;19.48;;
53843;SDS011;39744;53.314;5.710;2023-02-13T15:17:54;36.03;;;18.25;;
53843;SDS011;39744;53.314;5.710;2023-02-13T15:20:29;37.58;;;19.33;;
53843;SDS011;39744;53.314;5.710;2023-02-13T15:22:57;34.45;;;18.40;;
53843;SDS011;39744;53.314;5.710;2023-02-13T15:25:36;37.25;;;18.83;;
53843;SDS011;39744;53.314;5.710;2023-02-13T15:28:04;37.65;;;19.33;;
53843;SDS011;39744;53.314;5.710;2023-02-13T15:30:36;39.95;;;18.90;;
53843;SDS011;39744;53.314;5.710;2023-02-13T15:33:03;38.50;;;19.80;;
53843;SDS011;39744;53.314;5.710;2023-02-13T15:35:35;39.85;;;20.60;;
53843;SDS011;39744;53.314;5.710;2023-02-13T15:40:48;39.25;;;18.85;;
53843;SDS011;39744;53.314;5.710;2023-02-13T15:43:20;38.05;;;18.83;;
53843;SDS011;39744;53.314;5.710;2023-02-13T15:45:49;39.05;;;19.08;;
53843;SDS011;39744;53.314;5.710;2023-02-13T15:48:15;35.60;;;18.75;;
53843;SDS011;39744;53.314;5.710;2023-02-13T15:50:41;36.58;;;19.02;;
53843;SDS011;39744;53.314;5.710;2023-02-13T15:53:09;39.85;;;20.40;;
53843;SDS011;39744;53.314;5.710;2023-02-13T15:55:39;38.42;;;19.90;;
53843;SDS011;39744;53.314;5.710;2023-02-13T15:58:05;43.65;;;19.23;;
53843;SDS011;39744;53.314;5.710;2023-02-13T16:00:34;39.20;;;19.10;;
53843;SDS011;39744;53.314;5.710;2023-02-13T16:03:03;38.20;;;18.92;;
53843;SDS011;39744;53.314;5.710;2023-02-13T16:05:36;36.22;;;18.67;;
53843;SDS011;39744;53.314;5.710;2023-02-13T16:08:20;36.05;;;18.65;;
53843;SDS011;39744;53.314;5.710;2023-02-13T16:16:46;36.70;;;18.75;;
53843;SDS011;39744;53.314;5.710;2023-02-13T16:19:25;36.72;;;18.27;;
53843;SDS011;39744;53.314;5.710;2023-02-13T16:22:01;40.47;;;19.05;;
53843;SDS011;39744;53.314;5.710;2023-02-13T16:24:51;38.13;;;19.70;;
53843;SDS011;39744;53.314;5.710;2023-02-13T16:27:20;47.03;;;22.65;;
53843;SDS011;39744;53.314;5.710;2023-02-13T16:30:00;39.30;;;19.15;;
53843;SDS011;39744;53.314;5.710;2023-02-13T16:32:31;38.85;;;19.75;;
53843;SDS011;39744;53.314;5.710;2023-02-13T16:38:03;36.95;;;18.95;;
53843;SDS011;39744;53.314;5.710;2023-02-13T16:40:48;37.47;;;19.10;;
53843;SDS011;39744;53.314;5.710;2023-02-13T16:51:40;37.88;;;19.35;;
53843;SDS011;39744;53.314;5.710;2023-02-13T16:56:35;38.55;;;19.45;;
53843;SDS011;39744;53.314;5.710;2023-02-13T16:59:21;38.50;;;18.75;;
53843;SDS011;39744;53.314;5.710;2023-02-13T17:04:37;40.75;;;19.25;;
53843;SDS011;39744;53.314;5.710;2023-02-13T17:07:03;43.38;;;19.55;;
53843;SDS011;39744;53.314;5.710;2023-02-13T17:09:29;39.85;;;20.15;;
53843;SDS011;39744;53.314;5.710;2023-02-13T17:11:55;38.67;;;18.73;;
53843;SDS011;39744;53.314;5.710;2023-02-13T17:14:20;39.00;;;18.75;;
53843;SDS011;39744;53.314;5.710;2023-02-13T17:16:46;40.85;;;19.42;;
53843;SDS011;39744;53.314;5.710;2023-02-13T17:19:12;41.80;;;18.65;;
53843;SDS011;39744;53.314;5.710;2023-02-13T17:21:38;37.33;;;18.75;;
53843;SDS011;39744;53.314;5.710;2023-02-13T17:24:04;34.95;;;18.17;;
53843;SDS011;39744;53.314;5.710;2023-02-13T17:26:32;37.53;;;18.52;;
53843;SDS011;39744;53.314;5.710;2023-02-13T17:28:57;41.13;;;18.95;;
53843;SDS011;39744;53.314;5.710;2023-02-13T17:31:23;37.10;;;18.67;;
53843;SDS011;39744;53.314;5.710;2023-02-13T17:33:49;34.90;;;17.52;;
53843;SDS011;39744;53.314;5.710;2023-02-13T17:36:14;38.08;;;18.08;;
53843;SDS011;39744;53.314;5.710;2023-02-13T17:38:40;38.22;;;18.48;;
53843;SDS011;39744;53.314;5.710;2023-02-13T17:41:10;37.78;;;17.85;;
53843;SDS011;39744;53.314;5.710;2023-02-13T17:43:41;34.42;;;17.02;;